Time;durP1;ratioP1;P1;durP2;ratioP2;P2;SDS_P1;SDS_P2;PMS_P1;PMS_P2;Temp;Humidity;BMP_temperature;BMP_pressure;BME280_temperature;BME280_humidity;BME280_pressure;Samples;Min_cycle;Max_cycle;Signal;HPM_P1;HPM_P2
2023/10/21 00:01:57;;;;;;;;;;;;;;;11.26;55.64;92638.94;4960525;28;19963;-68
2023/10/21 00:04:22;;;;;;;;;;;;;;;11.49;55.14;92634.31;4961013;28;20554;-69
2023/10/21 00:06:48;;;;;;;;;;;;;;;11.38;55.24;92648.63;4960479;28;20004;-70
2023/10/21 00:09:13;;;;;;;;;;;;;;;11.58;54.95;92633.81;4942935;28;19921;-70
2023/10/21 00:11:38;;;;;;;;;;;;;;;11.72;53.70;92634.16;4962207;28;19922;-69
2023/10/21 00:14:04;;;;;;;;;;;;;;;11.56;54.79;92633.28;4965342;28;19953;-70
2023/10/21 00:16:30;;;;;;;;;;;;;;;11.35;55.30;92633.97;4963517;28;19918;-69
2023/10/21 00:18:55;;;;;;;;;;;;;;;11.22;55.36;92639.75;4962670;28;19956;-70
2023/10/21 00:21:20;;;;;;;;;;;;;;;11.60;54.03;92643.16;4958878;28;19997;-70
2023/10/21 00:23:45;;;;;;;;;;;;;;;11.63;54.66;92645.31;4966113;28;19917;-70
2023/10/21 00:26:11;;;;;;;;;;;;;;;11.50;55.01;92645.78;4964875;28;20371;-70
2023/10/21 00:28:36;;;;;;;;;;;;;;;11.42;54.61;92652.38;4968510;28;19949;-69
2023/10/21 00:31:03;;;;;;;;;;;;;;;11.26;56.26;92640.81;4967634;28;19934;-71
2023/10/21 00:33:28;;;;;;;;;;;;;;;11.41;55.17;92642.78;4971893;28;19921;-69
2023/10/21 00:35:53;;;;;;;;;;;;;;;11.52;55.50;92648.97;4969510;28;19928;-69
2023/10/21 00:38:19;;;;;;;;;;;;;;;11.46;54.93;92655.34;4970625;28;20303;-69
2023/10/21 00:40:53;;;;;;;;;;;;;;;11.25;55.98;92644.53;4970031;28;19965;-69
2023/10/21 00:43:34;;;;;;;;;;;;;;;11.41;55.55;92653.44;4969907;28;19918;-70
2023/10/21 00:46:11;;;;;;;;;;;;;;;11.24;55.36;92649.06;4961347;28;20375;-70
2023/10/21 00:48:37;;;;;;;;;;;;;;;11.30;56.22;92654.44;4965320;28;20653;-70
2023/10/21 00:51:02;;;;;;;;;;;;;;;11.26;55.91;92651.47;4967501;28;20291;-70
2023/10/21 00:53:27;;;;;;;;;;;;;;;10.95;56.79;92651.19;4966748;28;19982;-71
2023/10/21 00:55:53;;;;;;;;;;;;;;;10.25;59.32;92657.97;4965188;28;19975;-69
2023/10/21 00:58:19;;;;;;;;;;;;;;;10.73;57.68;92660.03;4969130;28;20043;-70
2023/10/21 01:00:44;;;;;;;;;;;;;;;11.09;56.55;92667.59;4946214;28;20442;-70
2023/10/21 01:03:09;;;;;;;;;;;;;;;10.99;56.75;92661.06;4968440;28;19924;-71
2023/10/21 01:05:34;;;;;;;;;;;;;;;11.23;56.01;92667.97;4946093;28;19988;-70
2023/10/21 01:07:59;;;;;;;;;;;;;;;10.93;56.67;92664.75;4970564;28;19936;-69
2023/10/21 01:10:25;;;;;;;;;;;;;;;11.00;56.73;92664.53;4967826;28;19914;-71
2023/10/21 01:12:51;;;;;;;;;;;;;;;10.99;56.60;92666.41;4969896;28;19918;-71
2023/10/21 01:15:16;;;;;;;;;;;;;;;11.30;55.43;92667.75;4951105;28;20157;-70
2023/10/21 01:17:41;;;;;;;;;;;;;;;11.34;55.53;92669.66;4966738;28;19922;-70
2023/10/21 01:20:06;;;;;;;;;;;;;;;11.22;55.74;92671.69;4963316;28;20008;-70
2023/10/21 01:22:32;;;;;;;;;;;;;;;11.18;56.01;92665.28;4963016;28;20391;-71
2023/10/21 01:24:57;;;;;;;;;;;;;;;11.12;55.96;92665.22;4963358;28;19921;-70
2023/10/21 01:27:23;;;;;;;;;;;;;;;10.91;56.79;92669.53;4962964;28;20438;-69
2023/10/21 01:29:48;;;;;;;;;;;;;;;11.33;55.93;92661.91;4965319;28;19949;-71
2023/10/21 01:32:14;;;;;;;;;;;;;;;11.32;55.41;92661.09;4963935;28;19948;-70
2023/10/21 01:34:39;;;;;;;;;;;;;;;11.16;56.62;92664.72;4964199;28;19929;-68
2023/10/21 01:37:04;;;;;;;;;;;;;;;11.24;55.71;92667.72;4962876;28;20382;-69
2023/10/21 01:39:29;;;;;;;;;;;;;;;11.25;55.91;92671.97;4963121;28;20477;-69
2023/10/21 01:41:55;;;;;;;;;;;;;;;10.83;57.13;92665.47;4964497;28;19922;-69
2023/10/21 01:44:20;;;;;;;;;;;;;;;11.18;56.32;92662.59;4962915;28;19985;-69
2023/10/21 01:46:45;;;;;;;;;;;;;;;11.06;56.50;92663.56;4963416;28;20029;-69
2023/10/21 01:49:10;;;;;;;;;;;;;;;10.99;56.41;92670.94;4964854;28;19957;-70
2023/10/21 01:51:36;;;;;;;;;;;;;;;11.00;56.54;92669.88;4962713;28;19981;-69
2023/10/21 01:54:01;;;;;;;;;;;;;;;11.03;56.19;92674.69;4962902;28;19972;-69
2023/10/21 01:56:26;;;;;;;;;;;;;;;11.16;55.13;92678.03;4958325;28;20360;-69
2023/10/21 01:58:51;;;;;;;;;;;;;;;11.36;55.20;92666.72;4962612;28;19913;-69
2023/10/21 02:01:17;;;;;;;;;;;;;;;11.22;55.15;92669.81;4962777;28;19914;-69
2023/10/21 02:03:42;;;;;;;;;;;;;;;11.00;56.37;92667.22;4962691;28;19922;-70
2023/10/21 02:06:07;;;;;;;;;;;;;;;11.12;56.07;92675.84;4963045;28;19914;-69
2023/10/21 02:08:33;;;;;;;;;;;;;;;11.19;55.52;92678.31;4962337;28;19953;-69
2023/10/21 02:10:58;;;;;;;;;;;;;;;10.27;58.96;92679.78;4962095;28;20472;-68
2023/10/21 02:13:23;;;;;;;;;;;;;;;10.72;57.35;92679.72;4958359;28;19918;-69
2023/10/21 02:15:50;;;;;;;;;;;;;;;11.00;56.45;92683.19;4963715;28;19961;-69
2023/10/21 02:18:15;;;;;;;;;;;;;;;11.23;55.73;92689.25;4962150;28;19921;-69
2023/10/21 02:20:41;;;;;;;;;;;;;;;11.05;56.37;92699.19;4966173;28;19941;-70
2023/10/21 02:23:06;;;;;;;;;;;;;;;10.96;56.29;92700.72;4968486;28;19932;-69
2023/10/21 02:25:31;;;;;;;;;;;;;;;9.76;60.96;92701.97;4967607;28;20458;-69
2023/10/21 02:27:56;;;;;;;;;;;;;;;10.25;59.55;92695.19;4969187;28;20141;-69
2023/10/21 02:30:22;;;;;;;;;;;;;;;10.92;57.61;92700.44;4962398;28;19977;-69
2023/10/21 02:32:48;;;;;;;;;;;;;;;11.00;56.76;92705.28;4962195;28;19925;-69
2023/10/21 02:35:13;;;;;;;;;;;;;;;9.94;60.35;92708.06;4963321;28;20162;-70
2023/10/21 02:37:38;;;;;;;;;;;;;;;10.67;57.92;92706.28;4963509;28;19930;-69
2023/10/21 02:40:04;;;;;;;;;;;;;;;10.51;58.40;92718.63;4964153;28;19973;-69
2023/10/21 02:42:29;;;;;;;;;;;;;;;10.93;57.13;92719.84;4965121;28;19980;-69
2023/10/21 02:44:55;;;;;;;;;;;;;;;10.58;57.74;92722.69;4962084;28;19918;-69
2023/10/21 02:47:20;;;;;;;;;;;;;;;11.12;56.11;92718.47;4962047;28;20006;-69
2023/10/21 02:49:46;;;;;;;;;;;;;;;10.45;58.36;92717.75;4962375;28;20343;-70
2023/10/21 02:52:11;;;;;;;;;;;;;;;10.74;57.38;92725.50;4959616;28;20338;-69
2023/10/21 02:54:36;;;;;;;;;;;;;;;10.90;56.75;92723.81;4965829;28;20017;-70
2023/10/21 02:57:02;;;;;;;;;;;;;;;11.33;55.71;92726.63;4957395;28;20269;-68
2023/10/21 02:59:27;;;;;;;;;;;;;;;11.41;54.88;92728.03;4961531;28;20386;-70
2023/10/21 03:01:52;;;;;;;;;;;;;;;11.43;55.02;92725.94;4961320;28;20039;-69
2023/10/21 03:04:18;;;;;;;;;;;;;;;11.44;55.08;92732.03;4961470;28;19960;-69
2023/10/21 03:06:43;;;;;;;;;;;;;;;11.33;54.64;92737.28;4963176;28;19918;-69
2023/10/21 03:09:08;;;;;;;;;;;;;;;11.47;54.99;92742.19;4964884;28;19922;-69
2023/10/21 03:11:33;;;;;;;;;;;;;;;10.99;56.39;92746.25;4960968;28;20135;-70
2023/10/21 03:13:59;;;;;;;;;;;;;;;11.16;56.25;92747.25;4966534;28;19949;-69
2023/10/21 03:16:24;;;;;;;;;;;;;;;11.07;56.13;92750.34;4961269;28;19950;-70
2023/10/21 03:18:49;;;;;;;;;;;;;;;11.42;54.55;92753.59;4961577;28;19914;-70
2023/10/21 03:21:15;;;;;;;;;;;;;;;10.59;58.26;92761.56;4956535;28;20280;-69
2023/10/21 03:23:40;;;;;;;;;;;;;;;11.09;56.75;92761.56;4956936;28;20302;-69
2023/10/21 03:26:06;;;;;;;;;;;;;;;10.57;58.35;92766.31;4961768;28;19910;-69
2023/10/21 03:28:32;;;;;;;;;;;;;;;11.25;56.24;92772.34;4960994;28;19966;-69
2023/10/21 03:30:57;;;;;;;;;;;;;;;9.67;62.20;92793.75;4960838;28;20235;-69
2023/10/21 03:33:23;;;;;;;;;;;;;;;10.81;58.21;92795.31;4960957;28;19957;-69
2023/10/21 03:35:52;;;;;;;;;;;;;;;10.61;58.63;92793.22;4961845;28;19980;-70
2023/10/21 03:38:17;;;;;;;;;;;;;;;10.87;57.73;92791.66;4961720;28;19918;-69
2023/10/21 03:40:42;;;;;;;;;;;;;;;9.70;61.81;92841.09;4960869;28;20043;-69
2023/10/21 03:43:08;;;;;;;;;;;;;;;7.75;67.84;92844.59;4960167;28;19918;-69
2023/10/21 03:45:34;;;;;;;;;;;;;;;6.56;73.75;92883.84;4962258;28;19977;-68
2023/10/21 03:48:00;;;;;;;;;;;;;;;5.28;81.57;92894.41;4964646;28;20502;-70
2023/10/21 03:50:25;;;;;;;;;;;;;;;4.96;82.90;92900.41;4963150;28;19983;-69
2023/10/21 03:52:50;;;;;;;;;;;;;;;4.33;87.07;92917.63;4960957;28;20024;-69
2023/10/21 03:55:16;;;;;;;;;;;;;;;4.09;90.25;92934.84;4959847;28;20445;-70
2023/10/21 03:57:41;;;;;;;;;;;;;;;4.01;91.30;92947.22;4957442;28;19984;-68
2023/10/21 04:00:07;;;;;;;;;;;;;;;4.00;91.28;92935.06;4964166;28;19951;-70
2023/10/21 04:02:33;;;;;;;;;;;;;;;4.04;92.45;92949.44;4961317;28;20456;-69
2023/10/21 04:04:58;;;;;;;;;;;;;;;4.16;91.48;92952.28;4962074;28;19956;-69
2023/10/21 04:07:23;;;;;;;;;;;;;;;4.18;91.34;92973.94;4964464;28;20035;-69
2023/10/21 04:09:48;;;;;;;;;;;;;;;4.17;91.97;92977.59;4965202;28;19945;-70
2023/10/21 04:12:14;;;;;;;;;;;;;;;4.37;89.93;93000.50;4964516;28;19945;-69
2023/10/21 04:14:39;;;;;;;;;;;;;;;4.06;92.21;93023.75;4964930;28;19951;-70
2023/10/21 04:17:05;;;;;;;;;;;;;;;4.20;92.29;93021.16;4964694;28;19958;-69
2023/10/21 04:19:30;;;;;;;;;;;;;;;4.92;89.06;93022.31;4964731;28;20425;-70
2023/10/21 04:21:55;;;;;;;;;;;;;;;5.10;87.28;93034.84;4960020;28;19986;-68
2023/10/21 04:24:21;;;;;;;;;;;;;;;5.07;87.94;93059.81;4964114;28;19950;-68
2023/10/21 04:26:46;;;;;;;;;;;;;;;5.49;86.55;93061.34;4963948;28;20042;-69
2023/10/21 04:29:12;;;;;;;;;;;;;;;5.52;84.27;93079.41;4964765;28;19970;-70
2023/10/21 04:31:38;;;;;;;;;;;;;;;6.22;82.06;93075.19;4967707;28;19921;-69
2023/10/21 04:34:03;;;;;;;;;;;;;;;6.43;80.97;93073.19;4966115;28;19925;-68
2023/10/21 04:36:29;;;;;;;;;;;;;;;6.84;78.31;93080.88;4964519;28;20809;-68
2023/10/21 04:38:54;;;;;;;;;;;;;;;6.21;81.27;93078.84;4966628;28;19921;-69
2023/10/21 04:41:19;;;;;;;;;;;;;;;6.61;78.17;93085.72;4964813;28;19914;-68
2023/10/21 04:43:44;;;;;;;;;;;;;;;6.85;75.83;93083.28;4963873;28;19924;-70
2023/10/21 04:46:11;;;;;;;;;;;;;;;6.89;77.16;93097.69;4966323;28;19992;-69
2023/10/21 04:48:36;;;;;;;;;;;;;;;6.20;79.83;93094.91;4965316;28;19917;-69
2023/10/21 04:51:02;;;;;;;;;;;;;;;6.89;77.84;93104.81;4964111;28;19988;-67
2023/10/21 04:53:27;;;;;;;;;;;;;;;6.58;78.39;93107.31;4965695;28;19921;-68
2023/10/21 04:55:52;;;;;;;;;;;;;;;6.95;74.90;93127.78;4958396;28;20021;-68
2023/10/21 04:58:17;;;;;;;;;;;;;;;6.99;76.48;93125.47;4964202;28;20319;-69
2023/10/21 05:00:42;;;;;;;;;;;;;;;7.53;74.50;93127.63;4967662;28;20323;-69
2023/10/21 05:03:08;;;;;;;;;;;;;;;7.20;75.18;93132.22;4966291;28;19920;-68
2023/10/21 05:05:34;;;;;;;;;;;;;;;7.28;75.10;93142.53;4964463;28;20008;-68
2023/10/21 05:08:00;;;;;;;;;;;;;;;7.76;72.33;93140.19;4963801;28;19922;-68
2023/10/21 05:10:26;;;;;;;;;;;;;;;8.08;72.32;93146.38;4964015;28;20261;-69
2023/10/21 05:12:51;;;;;;;;;;;;;;;8.37;70.11;93149.28;4962966;28;19925;-68
2023/10/21 05:15:17;;;;;;;;;;;;;;;8.17;71.48;93160.97;4963834;28;20013;-69
2023/10/21 05:17:42;;;;;;;;;;;;;;;7.83;70.23;93166.66;4963031;28;20622;-68
2023/10/21 05:20:08;;;;;;;;;;;;;;;7.96;70.37;93172.84;4964116;28;20026;-68
2023/10/21 05:22:33;;;;;;;;;;;;;;;7.38;72.89;93173.78;4962954;28;19958;-68
2023/10/21 05:24:58;;;;;;;;;;;;;;;7.82;72.96;93180.91;4963008;28;20432;-68
2023/10/21 05:27:23;;;;;;;;;;;;;;;7.81;72.04;93183.78;4963254;28;19999;-68
2023/10/21 05:29:49;;;;;;;;;;;;;;;6.28;77.57;93188.97;4964191;28;19921;-68
2023/10/21 05:32:17;;;;;;;;;;;;;;;7.62;74.33;93203.09;4963317;28;19918;-68
2023/10/21 05:34:42;;;;;;;;;;;;;;;7.31;74.94;93206.66;4964604;28;20451;-68
2023/10/21 05:37:08;;;;;;;;;;;;;;;7.48;73.89;93213.00;4962731;28;20028;-69
2023/10/21 05:39:33;;;;;;;;;;;;;;;6.07;78.77;93219.94;4964718;28;19981;-68
2023/10/21 05:41:58;;;;;;;;;;;;;;;7.39;71.99;93225.69;4962905;28;19910;-68
2023/10/21 05:44:24;;;;;;;;;;;;;;;8.14;70.36;93225.84;4963868;28;19968;-68
2023/10/21 05:46:49;;;;;;;;;;;;;;;8.62;67.34;93230.56;4964330;28;19981;-68
2023/10/21 05:49:14;;;;;;;;;;;;;;;8.11;68.05;93244.81;4963473;28;19996;-68
2023/10/21 05:51:40;;;;;;;;;;;;;;;8.37;71.36;93245.53;4958151;28;19926;-68
2023/10/21 05:54:05;;;;;;;;;;;;;;;8.94;68.38;93248.88;4962471;28;19921;-68
2023/10/21 05:56:30;;;;;;;;;;;;;;;9.24;66.10;93248.09;4957427;28;20528;-69
2023/10/21 05:58:55;;;;;;;;;;;;;;;8.41;67.75;93265.28;4962613;28;19914;-68
2023/10/21 06:01:21;;;;;;;;;;;;;;;9.25;67.02;93257.66;4962901;28;19914;-68
2023/10/21 06:03:46;;;;;;;;;;;;;;;9.42;64.91;93257.81;4962624;28;20162;-68
2023/10/21 06:06:11;;;;;;;;;;;;;;;8.63;67.81;93283.38;4963001;28;19918;-68
2023/10/21 06:08:37;;;;;;;;;;;;;;;8.79;68.13;93274.00;4966047;28;19918;-68
2023/10/21 06:11:02;;;;;;;;;;;;;;;9.15;66.95;93281.31;4962642;28;19918;-68
2023/10/21 06:13:27;;;;;;;;;;;;;;;8.04;71.33;93300.56;4961795;28;20545;-68
2023/10/21 06:15:52;;;;;;;;;;;;;;;8.93;68.18;93306.47;4962628;28;19994;-68
2023/10/21 06:18:18;;;;;;;;;;;;;;;9.26;64.97;93307.09;4949641;28;19948;-68
2023/10/21 06:20:49;;;;;;;;;;;;;;;9.49;65.09;93318.81;4962382;28;19918;-68
2023/10/21 06:23:15;;;;;;;;;;;;;;;8.22;68.09;93328.09;4962335;28;19928;-68
2023/10/21 06:25:40;;;;;;;;;;;;;;;8.45;67.36;93329.28;4963337;28;19926;-68
2023/10/21 06:28:05;;;;;;;;;;;;;;;9.23;65.44;93330.59;4961864;28;19972;-68
2023/10/21 06:30:30;;;;;;;;;;;;;;;7.43;70.61;93334.63;4962119;28;19969;-68
2023/10/21 06:32:55;;;;;;;;;;;;;;;8.47;68.05;93343.13;4943636;28;19918;-68
2023/10/21 06:35:21;;;;;;;;;;;;;;;9.19;65.22;93341.66;4962684;28;20629;-68
2023/10/21 06:37:48;;;;;;;;;;;;;;;8.21;68.25;93350.34;4964276;28;20409;-69
2023/10/21 06:40:13;;;;;;;;;;;;;;;8.12;68.09;93351.63;4963407;28;19922;-68
2023/10/21 06:42:38;;;;;;;;;;;;;;;8.44;68.46;93347.03;4963705;28;20062;-68
2023/10/21 06:45:04;;;;;;;;;;;;;;;8.92;65.54;93368.56;4965327;28;20510;-68
2023/10/21 06:47:29;;;;;;;;;;;;;;;8.00;70.17;93362.97;4962324;28;20287;-68
2023/10/21 06:49:55;;;;;;;;;;;;;;;8.66;66.70;93364.34;4963919;28;20026;-68
2023/10/21 06:52:20;;;;;;;;;;;;;;;7.14;69.26;93376.53;4970897;28;20465;-68
2023/10/21 06:54:45;;;;;;;;;;;;;;;7.95;67.20;93378.69;4970391;28;19917;-68
2023/10/21 06:57:10;;;;;;;;;;;;;;;7.86;67.95;93375.47;4968726;28;19929;-68
2023/10/21 06:59:35;;;;;;;;;;;;;;;7.26;69.15;93390.72;4967416;28;19924;-68
2023/10/21 07:02:01;;;;;;;;;;;;;;;6.86;70.10;93398.84;4964144;28;20517;-68
2023/10/21 07:04:26;;;;;;;;;;;;;;;7.63;69.02;93402.53;4970014;28;20413;-68
2023/10/21 07:06:51;;;;;;;;;;;;;;;7.19;69.18;93408.47;4965168;28;19918;-68
2023/10/21 07:09:16;;;;;;;;;;;;;;;7.42;69.01;93401.84;4962676;28;20334;-68
2023/10/21 07:11:42;;;;;;;;;;;;;;;6.31;70.77;93434.31;4961821;28;19926;-69
2023/10/21 07:14:08;;;;;;;;;;;;;;;6.93;69.32;93444.59;4963155;28;19917;-69
2023/10/21 07:16:33;;;;;;;;;;;;;;;6.92;70.55;93427.09;4962399;28;20113;-69
2023/10/21 07:18:58;;;;;;;;;;;;;;;7.00;68.81;93436.63;4964040;28;19920;-69
2023/10/21 07:21:24;;;;;;;;;;;;;;;7.30;68.88;93441.41;4961846;28;19968;-69
2023/10/21 07:23:49;;;;;;;;;;;;;;;6.94;67.00;93456.78;4963358;28;19922;-69
2023/10/21 07:26:14;;;;;;;;;;;;;;;6.70;68.16;93466.22;4965948;28;19917;-68
2023/10/21 07:28:40;;;;;;;;;;;;;;;7.09;66.09;93483.03;4963616;28;19996;-68
2023/10/21 07:31:05;;;;;;;;;;;;;;;6.83;69.00;93510.38;4966216;28;19934;-69
2023/10/21 07:33:30;;;;;;;;;;;;;;;6.75;68.51;93469.88;4964773;28;20171;-68
2023/10/21 07:35:56;;;;;;;;;;;;;;;6.60;69.81;93496.53;4963906;28;19956;-69
2023/10/21 07:38:21;;;;;;;;;;;;;;;6.81;67.62;93512.38;4949534;28;19941;-68
2023/10/21 07:40:46;;;;;;;;;;;;;;;6.15;69.32;93528.84;4965005;28;19925;-67
2023/10/21 07:43:12;;;;;;;;;;;;;;;6.45;69.70;93515.25;4967453;28;19918;-68
2023/10/21 07:45:43;;;;;;;;;;;;;;;5.97;70.10;93519.69;4967136;28;19918;-69
2023/10/21 07:48:08;;;;;;;;;;;;;;;5.58;72.02;93537.06;4967956;28;19930;-67
2023/10/21 07:50:34;;;;;;;;;;;;;;;6.13;68.60;93525.59;4965587;28;19972;-67
2023/10/21 07:52:59;;;;;;;;;;;;;;;6.42;68.39;93533.34;4965090;28;20378;-69
2023/10/21 07:55:24;;;;;;;;;;;;;;;6.70;68.48;93527.06;4961613;28;20008;-68
2023/10/21 07:57:49;;;;;;;;;;;;;;;6.77;65.46;93541.09;4961878;28;19918;-68
2023/10/21 08:00:15;;;;;;;;;;;;;;;6.42;66.69;93547.34;4961090;28;20393;-68
2023/10/21 08:02:40;;;;;;;;;;;;;;;6.61;66.31;93563.47;4962364;28;19957;-69
2023/10/21 08:05:07;;;;;;;;;;;;;;;7.16;64.62;93567.69;4963990;28;19956;-69
2023/10/21 08:07:32;;;;;;;;;;;;;;;6.72;69.69;93567.31;4970389;28;19968;-68
2023/10/21 08:09:58;;;;;;;;;;;;;;;7.38;62.78;93570.88;4967408;28;19921;-68
2023/10/21 08:12:23;;;;;;;;;;;;;;;8.19;64.49;93561.78;4971819;28;19917;-70
2023/10/21 08:14:48;;;;;;;;;;;;;;;8.93;62.33;93571.84;4943103;28;20474;-69
2023/10/21 08:17:14;;;;;;;;;;;;;;;8.90;59.56;93571.47;4961820;28;19925;-69
2023/10/21 08:19:40;;;;;;;;;;;;;;;9.04;58.29;93593.41;4968044;28;20029;-69
2023/10/21 08:22:05;;;;;;;;;;;;;;;8.82;58.48;93589.31;4968148;28;20705;-69
2023/10/21 08:24:31;;;;;;;;;;;;;;;8.30;59.30;93594.78;4967653;28;19937;-70
2023/10/21 08:26:57;;;;;;;;;;;;;;;9.27;58.70;93587.50;4970973;28;19914;-69
2023/10/21 08:29:23;;;;;;;;;;;;;;;6.55;62.00;93606.56;4966509;28;20509;-68
2023/10/21 08:31:48;;;;;;;;;;;;;;;7.14;62.31;93604.09;4960462;28;19918;-68
2023/10/21 08:34:13;;;;;;;;;;;;;;;8.78;60.45;93603.22;4963152;28;20471;-69
2023/10/21 08:36:39;;;;;;;;;;;;;;;8.56;58.57;93609.69;4961494;28;20351;-69
2023/10/21 08:39:07;;;;;;;;;;;;;;;8.78;58.85;93601.34;4961405;28;19926;-70
2023/10/21 08:41:34;;;;;;;;;;;;;;;8.53;56.34;93625.19;4962204;28;20537;-70
2023/10/21 08:43:59;;;;;;;;;;;;;;;8.60;57.12;93611.91;4960539;28;19920;-70
2023/10/21 08:46:25;;;;;;;;;;;;;;;8.28;57.79;93607.41;4965090;28;19934;-68
2023/10/21 08:48:50;;;;;;;;;;;;;;;7.91;58.44;93629.19;4962514;28;19996;-70
2023/10/21 08:51:17;;;;;;;;;;;;;;;8.12;57.26;93609.53;4965619;28;19988;-70
2023/10/21 08:53:42;;;;;;;;;;;;;;;7.54;57.86;93629.69;4965544;28;19914;-69
2023/10/21 08:56:07;;;;;;;;;;;;;;;8.45;61.15;93613.03;4948419;28;19922;-68
2023/10/21 08:58:33;;;;;;;;;;;;;;;9.14;56.16;93616.81;4967809;28;19936;-69
2023/10/21 09:00:59;;;;;;;;;;;;;;;8.77;55.44;93630.78;4968096;28;19953;-69
2023/10/21 09:03:24;;;;;;;;;;;;;;;8.89;57.83;93633.53;4965835;28;19922;-69
2023/10/21 09:06:12;;;;;;;;;;;;;;;9.13;54.97;93633.78;4969975;28;19929;-69
2023/10/21 09:08:43;;;;;;;;;;;;;;;8.65;54.67;93635.94;4970918;28;20017;-68
2023/10/21 09:11:12;;;;;;;;;;;;;;;7.98;57.07;93656.50;4971284;28;19940;-69
2023/10/21 09:13:38;;;;;;;;;;;;;;;8.86;56.57;93645.41;4963631;28;20540;-70
2023/10/21 09:16:08;;;;;;;;;;;;;;;9.42;54.21;93636.78;4969446;28;19980;-70
2023/10/21 09:18:34;;;;;;;;;;;;;;;9.18;50.95;93663.94;4968680;28;19918;-69
2023/10/21 09:21:00;;;;;;;;;;;;;;;8.29;58.96;93639.00;4963378;28;19996;-69
2023/10/21 09:23:26;;;;;;;;;;;;;;;8.34;54.33;93650.81;4941214;28;19921;-70
2023/10/21 09:25:53;;;;;;;;;;;;;;;7.89;55.67;93653.25;4964529;28;20465;-69
2023/10/21 09:28:22;;;;;;;;;;;;;;;7.05;58.32;93661.75;4963666;28;20372;-69
2023/10/21 09:30:57;;;;;;;;;;;;;;;8.51;56.91;93665.22;4963698;28;20290;-70
2023/10/21 09:33:23;;;;;;;;;;;;;;;8.55;55.30;93670.91;4961975;28;19918;-70
2023/10/21 09:35:59;;;;;;;;;;;;;;;6.06;61.60;93676.16;4963780;28;19925;-70
2023/10/21 09:38:24;;;;;;;;;;;;;;;8.54;55.11;93659.47;4963712;28;19920;-69
2023/10/21 09:40:49;;;;;;;;;;;;;;;7.89;58.47;93674.44;4947500;28;19925;-69
2023/10/21 09:43:15;;;;;;;;;;;;;;;8.49;54.98;93671.75;4967313;28;19957;-70
2023/10/21 09:45:44;;;;;;;;;;;;;;;7.83;56.32;93663.88;4970376;28;19918;-70
2023/10/21 09:48:10;;;;;;;;;;;;;;;8.11;57.17;93699.84;4970957;28;19926;-70
2023/10/21 09:50:35;;;;;;;;;;;;;;;9.14;54.18;93683.19;4969826;28;20006;-70
2023/10/21 09:53:11;;;;;;;;;;;;;;;8.26;54.90;93689.00;4945234;28;20434;-70
2023/10/21 09:55:36;;;;;;;;;;;;;;;8.35;56.28;93682.44;4963309;28;20495;-69
2023/10/21 09:58:02;;;;;;;;;;;;;;;9.62;55.18;93673.78;4945664;28;19954;-69
2023/10/21 10:00:27;;;;;;;;;;;;;;;8.26;56.27;93695.09;4945027;28;20368;-70
2023/10/21 10:02:53;;;;;;;;;;;;;;;8.77;54.32;93683.84;4944889;28;19914;-70
2023/10/21 10:05:20;;;;;;;;;;;;;;;9.69;52.74;93681.69;4965876;28;20295;-69
2023/10/21 10:07:45;;;;;;;;;;;;;;;9.45;52.85;93700.91;4964701;28;20218;-70
2023/10/21 10:10:12;;;;;;;;;;;;;;;9.05;54.07;93687.97;4967721;28;19941;-70
2023/10/21 10:12:45;;;;;;;;;;;;;;;8.02;57.45;93688.66;4962524;28;20434;-69
2023/10/21 10:15:30;;;;;;;;;;;;;;;9.12;54.11;93690.56;4962968;28;19975;-69
2023/10/21 10:17:56;;;;;;;;;;;;;;;9.57;53.31;93701.00;4964448;28;19945;-69
2023/10/21 10:20:24;;;;;;;;;;;;;;;10.32;52.23;93708.22;4965583;28;19918;-69
2023/10/21 10:23:08;;;;;;;;;;;;;;;8.53;53.54;93707.41;4962853;28;20334;-69
2023/10/21 10:25:34;;;;;;;;;;;;;;;8.66;54.47;93712.66;4968517;28;20551;-69
2023/10/21 10:28:10;;;;;;;;;;;;;;;8.46;54.42;93704.81;4966154;28;19918;-69
2023/10/21 10:30:40;;;;;;;;;;;;;;;8.82;54.79;93716.66;4970506;28;19917;-70
2023/10/21 10:33:06;;;;;;;;;;;;;;;7.83;56.42;93711.56;4945285;28;20025;-70
2023/10/21 10:35:32;;;;;;;;;;;;;;;7.78;57.87;93720.94;4971428;28;19947;-69
2023/10/21 10:37:59;;;;;;;;;;;;;;;8.34;54.88;93717.09;4968314;28;20505;-69
2023/10/21 10:40:31;;;;;;;;;;;;;;;9.16;52.70;93718.31;4972904;28;19941;-69
2023/10/21 10:42:56;;;;;;;;;;;;;;;8.69;52.39;93727.34;4967889;28;19954;-69
2023/10/21 10:45:21;;;;;;;;;;;;;;;7.77;54.49;93732.56;4966675;28;19917;-69
2023/10/21 10:47:46;;;;;;;;;;;;;;;8.98;52.90;93722.53;4962587;28;19922;-69
2023/10/21 10:50:19;;;;;;;;;;;;;;;8.79;51.44;93729.53;4961823;28;19990;-69
2023/10/21 10:52:46;;;;;;;;;;;;;;;9.11;51.48;93734.06;4948630;28;19955;-69
2023/10/21 10:55:11;;;;;;;;;;;;;;;9.68;51.15;93731.34;4962524;28;19920;-69
2023/10/21 10:57:36;;;;;;;;;;;;;;;8.27;51.97;93744.44;4964267;28;20037;-69
2023/10/21 11:00:03;;;;;;;;;;;;;;;8.76;52.03;93746.69;4961831;28;20363;-69
2023/10/21 11:02:40;;;;;;;;;;;;;;;8.32;50.65;93745.69;4964481;28;19910;-69
2023/10/21 11:05:06;;;;;;;;;;;;;;;9.17;49.89;93743.81;4962156;28;19965;-69
2023/10/21 11:07:31;;;;;;;;;;;;;;;8.92;49.44;93744.56;4961057;28;19933;-69
2023/10/21 11:10:03;;;;;;;;;;;;;;;9.11;49.39;93744.69;4961333;28;20578;-69
2023/10/21 11:12:28;;;;;;;;;;;;;;;10.25;47.33;93761.50;4966968;28;19977;-69
2023/10/21 11:14:54;;;;;;;;;;;;;;;10.30;49.01;93736.91;4962873;28;20554;-69
2023/10/21 11:17:20;;;;;;;;;;;;;;;10.15;46.57;93763.84;4965131;28;19918;-69
2023/10/21 11:19:45;;;;;;;;;;;;;;;9.79;50.25;93758.25;4962321;28;20614;-68
2023/10/21 11:22:20;;;;;;;;;;;;;;;10.93;44.99;93752.69;4943649;28;19925;-69
2023/10/21 11:24:46;;;;;;;;;;;;;;;10.07;47.00;93764.97;4964657;28;20218;-68
2023/10/21 11:27:12;;;;;;;;;;;;;;;10.64;45.99;93779.88;4964206;28;20013;-69
2023/10/21 11:29:37;;;;;;;;;;;;;;;11.39;44.88;93759.22;4968784;28;20008;-68
2023/10/21 11:32:03;;;;;;;;;;;;;;;11.45;47.27;93756.66;4965095;28;20015;-68
2023/10/21 11:34:29;;;;;;;;;;;;;;;12.21;43.01;93757.91;4966025;28;19932;-68
2023/10/21 11:36:55;;;;;;;;;;;;;;;10.78;45.41;93785.84;4961499;28;20443;-69
2023/10/21 11:39:21;;;;;;;;;;;;;;;10.82;44.32;93757.75;4970848;28;19945;-68
2023/10/21 11:41:47;;;;;;;;;;;;;;;11.46;43.06;93753.78;4965129;28;20396;-68
2023/10/21 11:44:13;;;;;;;;;;;;;;;10.86;44.93;93758.13;4970328;28;19949;-68
2023/10/21 11:46:38;;;;;;;;;;;;;;;11.76;44.53;93763.56;4961569;28;20019;-68
2023/10/21 11:49:13;;;;;;;;;;;;;;;12.02;43.72;93764.16;4961627;28;19949;-68
2023/10/21 11:51:38;;;;;;;;;;;;;;;11.32;42.46;93766.50;4961428;28;19961;-68
2023/10/21 11:54:08;;;;;;;;;;;;;;;11.97;43.30;93764.00;4943756;28;19961;-68
2023/10/21 12:11:11;;;;;;;;;;;;;;;12.96;40.78;93758.06;4965117;28;19925;-68
2023/10/21 12:13:49;;;;;;;;;;;;;;;14.28;37.12;93759.91;4967119;28;20327;-68
2023/10/21 12:25:14;;;;;;;;;;;;;;;13.17;38.59;93785.16;4955896;28;19969;-69
2023/10/21 12:38:05;;;;;;;;;;;;;;;13.51;39.39;93789.75;4972784;28;20572;-69
2023/10/21 12:40:33;;;;;;;;;;;;;;;14.12;37.06;93791.81;4965206;28;19922;-69
2023/10/21 12:45:54;;;;;;;;;;;;;;;14.30;36.43;93805.97;4965523;28;19952;-69
2023/10/21 12:48:19;;;;;;;;;;;;;;;13.98;37.22;93809.25;4966452;28;20444;-69
2023/10/21 12:50:50;;;;;;;;;;;;;;;12.92;38.09;93813.78;4966812;28;20322;-69
2023/10/21 12:53:16;;;;;;;;;;;;;;;14.12;36.26;93815.91;4968043;28;20013;-69
2023/10/21 12:55:41;;;;;;;;;;;;;;;15.07;34.19;93805.34;4968368;28;20050;-69
2023/10/21 12:58:07;;;;;;;;;;;;;;;12.55;38.21;93822.13;4971963;28;20077;-69
2023/10/21 13:00:32;;;;;;;;;;;;;;;14.58;34.57;93802.34;4963652;28;19981;-69
2023/10/21 13:02:57;;;;;;;;;;;;;;;12.47;38.39;93814.47;4964384;28;20283;-69
2023/10/21 13:05:23;;;;;;;;;;;;;;;13.81;36.40;93821.53;4966562;28;19910;-69
2023/10/21 13:07:48;;;;;;;;;;;;;;;13.74;36.00;93820.09;4963698;28;19980;-69
2023/10/21 13:10:13;;;;;;;;;;;;;;;12.67;38.45;93825.59;4971304;28;19940;-69
2023/10/21 13:12:39;;;;;;;;;;;;;;;12.89;38.29;93816.94;4969467;28;19924;-69
2023/10/21 13:15:11;;;;;;;;;;;;;;;12.17;38.97;93845.56;4964340;28;19924;-69
2023/10/21 13:17:36;;;;;;;;;;;;;;;12.48;38.16;93838.25;4961484;28;19947;-69
2023/10/21 13:20:04;;;;;;;;;;;;;;;12.87;38.43;93829.72;4963099;28;19918;-69
2023/10/21 13:22:29;;;;;;;;;;;;;;;11.13;41.79;93838.47;4962331;28;19925;-68
2023/10/21 13:24:55;;;;;;;;;;;;;;;12.71;39.15;93852.63;4963788;28;20464;-69